Aérodrome :
LOGIN :

S'inscrire | Disclaimer

   EN    FR    IT 

 










Légende :    VFR   VFR Marginal   IFR   IFR Intensif   IFR Très Intensif
Visi : 
Plafond : 
>= 8 km
>= 3000ft
5 à 8 km
1000 à 3000 ft
1500m à 5 km
500 à 1000 ft
800 à 1500m
200 à 500 ft
< 800m
< 200 ft
Symboles :   Orages  Brouillard  Fortes neiges  Fortes précipitations  Vent > 20 kt
SIGMETs :   Divers  Orages  Givrage  Turbulence  Onde Orograph.  Cendres Volcan.







- Altitude de l'aérodrome : 270 ft
- Code IATA : OXF
- Voir les cartes d'approche


EGTK - Oxford (Kidlington)

DERNIER METAR :
  • 181750Z 19003KT 9999 BKN019 08/05 Q1020

METARs EXPIRÉS :
  • 181720Z 19004KT 9999 BKN021 OVC024 08/05 Q1020
  • 181650Z 19005KT 9999 BKN020 08/05 Q1020
  • 181620Z 19006KT 160V220 9999 SCT020 BKN025 09/06 Q1020
  • 181550Z 19007KT 9999 FEW020 BKN024 09/06 Q1020
  • 181520Z 18007KT 9999 FEW020 BKN024 09/05 Q1020

TAF TAF EGTK
Valide du 18 à 18h jusqu'au 18 à 23h UTC


181705Z 1818/1823 18005KT 9999 FEW014 SCT035
BECMG 1818/1821 8000 -RA BKN014
TEMPO 1821/1823 4000 -RADZ BKN005
Pas de NOTAMs connus pour ce terrain.



MET'MAP, la Météo Aéronautique d'un coup d'oeil ! - Copyright ORBIFLY Décembre 2007 - Disclaimer

ORBIFLY MET'MAP TEAM :

Programmation & Développement : Alexandra Zaïnal
Conception & Développement : Baudouin d'Aumeries
Co-Programmation & Développement : Marc-Olivier Méhu
Soutien technique & logistique : Manuel Goepfert

Contact : metmap@orbifly.com




SOURCES & CREDITS :

   NOAA